sensor_id;sensor_type;location;lat;lon;timestamp;P1;durP1;ratioP1;P2;durP2;ratioP2
75894;SDS011;64573;50.328;15.014;2023-09-18T00:00:11;7.57;;;5.60;;
75894;SDS011;64573;50.328;15.014;2023-09-18T00:02:37;5.63;;;4.80;;
75894;SDS011;64573;50.328;15.014;2023-09-18T00:05:03;6.72;;;5.40;;
75894;SDS011;64573;50.328;15.014;2023-09-18T00:07:29;6.43;;;5.40;;
75894;SDS011;64573;50.328;15.014;2023-09-18T00:09:54;7.85;;;5.78;;
75894;SDS011;64573;50.328;15.014;2023-09-18T00:12:19;7.22;;;5.65;;
75894;SDS011;64573;50.328;15.014;2023-09-18T00:14:47;7.82;;;5.15;;
75894;SDS011;64573;50.328;15.014;2023-09-18T00:17:14;9.05;;;5.22;;
75894;SDS011;64573;50.328;15.014;2023-09-18T00:19:39;6.68;;;5.38;;
75894;SDS011;64573;50.328;15.014;2023-09-18T00:22:05;6.72;;;5.50;;
75894;SDS011;64573;50.328;15.014;2023-09-18T00:24:31;7.63;;;5.50;;
75894;SDS011;64573;50.328;15.014;2023-09-18T00:26:57;7.40;;;5.65;;
75894;SDS011;64573;50.328;15.014;2023-09-18T00:29:22;9.10;;;5.80;;
75894;SDS011;64573;50.328;15.014;2023-09-18T00:31:47;13.52;;;5.63;;
75894;SDS011;64573;50.328;15.014;2023-09-18T00:34:13;5.82;;;5.20;;
75894;SDS011;64573;50.328;15.014;2023-09-18T00:36:38;8.63;;;5.38;;
75894;SDS011;64573;50.328;15.014;2023-09-18T00:39:03;7.03;;;5.75;;
75894;SDS011;64573;50.328;15.014;2023-09-18T00:41:29;10.15;;;6.25;;
75894;SDS011;64573;50.328;15.014;2023-09-18T00:43:55;8.93;;;5.50;;
75894;SDS011;64573;50.328;15.014;2023-09-18T00:46:21;7.38;;;5.63;;
75894;SDS011;64573;50.328;15.014;2023-09-18T00:48:47;6.75;;;5.63;;
75894;SDS011;64573;50.328;15.014;2023-09-18T00:51:12;6.15;;;5.32;;
75894;SDS011;64573;50.328;15.014;2023-09-18T00:53:42;6.22;;;5.15;;
75894;SDS011;64573;50.328;15.014;2023-09-18T00:56:10;15.40;;;5.60;;
75894;SDS011;64573;50.328;15.014;2023-09-18T00:58:36;5.75;;;5.00;;
75894;SDS011;64573;50.328;15.014;2023-09-18T01:01:02;6.90;;;5.60;;
75894;SDS011;64573;50.328;15.014;2023-09-18T01:03:28;6.30;;;4.78;;
75894;SDS011;64573;50.328;15.014;2023-09-18T01:05:54;8.68;;;5.57;;
75894;SDS011;64573;50.328;15.014;2023-09-18T01:08:20;6.95;;;5.88;;
75894;SDS011;64573;50.328;15.014;2023-09-18T01:11:06;8.95;;;5.80;;
75894;SDS011;64573;50.328;15.014;2023-09-18T01:16:50;7.50;;;5.93;;
75894;SDS011;64573;50.328;15.014;2023-09-18T01:19:34;6.47;;;5.50;;
75894;SDS011;64573;50.328;15.014;2023-09-18T01:22:06;6.20;;;5.60;;
75894;SDS011;64573;50.328;15.014;2023-09-18T01:24:32;7.20;;;5.38;;
75894;SDS011;64573;50.328;15.014;2023-09-18T01:27:02;7.28;;;6.05;;
75894;SDS011;64573;50.328;15.014;2023-09-18T01:29:29;11.20;;;5.97;;
75894;SDS011;64573;50.328;15.014;2023-09-18T01:31:55;6.65;;;5.65;;
75894;SDS011;64573;50.328;15.014;2023-09-18T01:34:21;6.82;;;5.80;;
75894;SDS011;64573;50.328;15.014;2023-09-18T01:36:54;7.72;;;6.00;;
75894;SDS011;64573;50.328;15.014;2023-09-18T01:39:21;6.75;;;5.60;;
75894;SDS011;64573;50.328;15.014;2023-09-18T01:41:47;6.15;;;5.50;;
75894;SDS011;64573;50.328;15.014;2023-09-18T01:44:13;8.80;;;6.40;;
75894;SDS011;64573;50.328;15.014;2023-09-18T01:46:38;8.05;;;5.65;;
75894;SDS011;64573;50.328;15.014;2023-09-18T01:49:04;6.75;;;5.60;;
75894;SDS011;64573;50.328;15.014;2023-09-18T01:51:30;13.15;;;6.75;;
75894;SDS011;64573;50.328;15.014;2023-09-18T01:53:55;7.15;;;6.10;;
75894;SDS011;64573;50.328;15.014;2023-09-18T01:56:21;6.72;;;5.57;;
75894;SDS011;64573;50.328;15.014;2023-09-18T01:58:47;7.63;;;6.10;;
75894;SDS011;64573;50.328;15.014;2023-09-18T02:01:12;7.20;;;5.85;;
75894;SDS011;64573;50.328;15.014;2023-09-18T02:03:38;8.27;;;6.18;;
75894;SDS011;64573;50.328;15.014;2023-09-18T02:06:07;7.43;;;5.88;;
75894;SDS011;64573;50.328;15.014;2023-09-18T02:08:33;7.03;;;5.65;;
75894;SDS011;64573;50.328;15.014;2023-09-18T02:10:59;6.80;;;5.80;;
75894;SDS011;64573;50.328;15.014;2023-09-18T02:13:24;8.30;;;5.65;;
75894;SDS011;64573;50.328;15.014;2023-09-18T02:15:49;6.68;;;5.63;;
75894;SDS011;64573;50.328;15.014;2023-09-18T02:18:15;6.70;;;5.70;;
75894;SDS011;64573;50.328;15.014;2023-09-18T02:20:41;6.55;;;5.18;;
75894;SDS011;64573;50.328;15.014;2023-09-18T02:23:06;9.18;;;5.82;;
75894;SDS011;64573;50.328;15.014;2023-09-18T02:25:31;6.65;;;5.72;;
75894;SDS011;64573;50.328;15.014;2023-09-18T02:27:57;8.23;;;5.90;;
75894;SDS011;64573;50.328;15.014;2023-09-18T02:30:22;10.32;;;6.55;;
75894;SDS011;64573;50.328;15.014;2023-09-18T02:32:47;9.07;;;6.05;;
75894;SDS011;64573;50.328;15.014;2023-09-18T02:35:13;11.45;;;6.18;;
75894;SDS011;64573;50.328;15.014;2023-09-18T02:37:39;9.55;;;5.78;;
75894;SDS011;64573;50.328;15.014;2023-09-18T02:40:04;7.00;;;5.45;;
75894;SDS011;64573;50.328;15.014;2023-09-18T02:42:30;6.30;;;5.38;;
75894;SDS011;64573;50.328;15.014;2023-09-18T02:44:55;6.63;;;5.63;;
75894;SDS011;64573;50.328;15.014;2023-09-18T02:47:20;9.40;;;6.03;;
75894;SDS011;64573;50.328;15.014;2023-09-18T02:49:46;8.35;;;6.40;;
75894;SDS011;64573;50.328;15.014;2023-09-18T02:52:11;8.05;;;5.85;;
75894;SDS011;64573;50.328;15.014;2023-09-18T02:54:37;9.05;;;6.00;;
75894;SDS011;64573;50.328;15.014;2023-09-18T02:57:02;8.55;;;5.53;;
75894;SDS011;64573;50.328;15.014;2023-09-18T02:59:28;8.32;;;6.22;;
75894;SDS011;64573;50.328;15.014;2023-09-18T03:01:53;6.47;;;5.80;;
75894;SDS011;64573;50.328;15.014;2023-09-18T03:04:18;8.98;;;5.70;;
75894;SDS011;64573;50.328;15.014;2023-09-18T03:06:44;8.55;;;6.32;;
75894;SDS011;64573;50.328;15.014;2023-09-18T03:09:10;9.95;;;6.65;;
75894;SDS011;64573;50.328;15.014;2023-09-18T03:11:35;7.53;;;6.05;;
75894;SDS011;64573;50.328;15.014;2023-09-18T03:14:00;8.20;;;5.97;;
75894;SDS011;64573;50.328;15.014;2023-09-18T03:16:26;7.53;;;6.35;;
75894;SDS011;64573;50.328;15.014;2023-09-18T03:18:51;7.13;;;6.13;;
75894;SDS011;64573;50.328;15.014;2023-09-18T03:21:16;9.85;;;6.38;;
75894;SDS011;64573;50.328;15.014;2023-09-18T03:23:42;8.52;;;6.28;;
75894;SDS011;64573;50.328;15.014;2023-09-18T03:26:07;9.30;;;6.57;;
75894;SDS011;64573;50.328;15.014;2023-09-18T03:28:32;8.13;;;6.07;;
75894;SDS011;64573;50.328;15.014;2023-09-18T03:30:58;10.35;;;6.45;;
75894;SDS011;64573;50.328;15.014;2023-09-18T03:33:23;10.05;;;6.32;;
75894;SDS011;64573;50.328;15.014;2023-09-18T03:35:49;12.02;;;6.28;;
75894;SDS011;64573;50.328;15.014;2023-09-18T03:38:15;9.68;;;6.22;;
75894;SDS011;64573;50.328;15.014;2023-09-18T03:40:41;9.32;;;6.50;;
75894;SDS011;64573;50.328;15.014;2023-09-18T03:43:07;7.25;;;6.03;;
75894;SDS011;64573;50.328;15.014;2023-09-18T03:45:32;7.57;;;6.10;;
75894;SDS011;64573;50.328;15.014;2023-09-18T03:47:58;7.20;;;6.22;;
75894;SDS011;64573;50.328;15.014;2023-09-18T03:50:23;8.65;;;6.38;;
75894;SDS011;64573;50.328;15.014;2023-09-18T03:52:48;9.85;;;6.00;;
75894;SDS011;64573;50.328;15.014;2023-09-18T03:55:14;6.88;;;5.90;;
75894;SDS011;64573;50.328;15.014;2023-09-18T03:57:39;8.98;;;6.45;;
75894;SDS011;64573;50.328;15.014;2023-09-18T04:00:05;7.60;;;5.72;;
75894;SDS011;64573;50.328;15.014;2023-09-18T04:02:32;8.85;;;6.72;;
75894;SDS011;64573;50.328;15.014;2023-09-18T04:04:58;7.38;;;6.03;;
75894;SDS011;64573;50.328;15.014;2023-09-18T04:07:23;8.50;;;6.78;;
75894;SDS011;64573;50.328;15.014;2023-09-18T04:09:49;8.98;;;5.95;;
75894;SDS011;64573;50.328;15.014;2023-09-18T04:12:14;6.80;;;6.05;;
75894;SDS011;64573;50.328;15.014;2023-09-18T04:14:40;8.15;;;6.75;;
75894;SDS011;64573;50.328;15.014;2023-09-18T04:17:06;9.13;;;7.00;;
75894;SDS011;64573;50.328;15.014;2023-09-18T04:19:31;9.13;;;5.85;;
75894;SDS011;64573;50.328;15.014;2023-09-18T04:21:57;8.15;;;6.53;;
75894;SDS011;64573;50.328;15.014;2023-09-18T04:24:22;8.80;;;6.70;;
75894;SDS011;64573;50.328;15.014;2023-09-18T04:26:48;9.05;;;7.03;;
75894;SDS011;64573;50.328;15.014;2023-09-18T04:29:17;8.43;;;6.53;;
75894;SDS011;64573;50.328;15.014;2023-09-18T04:31:43;8.93;;;7.10;;
75894;SDS011;64573;50.328;15.014;2023-09-18T04:34:09;9.15;;;6.68;;
75894;SDS011;64573;50.328;15.014;2023-09-18T04:36:35;9.02;;;6.60;;
75894;SDS011;64573;50.328;15.014;2023-09-18T04:39:02;8.70;;;6.70;;
75894;SDS011;64573;50.328;15.014;2023-09-18T04:41:29;8.88;;;7.07;;
75894;SDS011;64573;50.328;15.014;2023-09-18T04:43:55;10.00;;;6.80;;
75894;SDS011;64573;50.328;15.014;2023-09-18T04:46:20;8.95;;;6.65;;
75894;SDS011;64573;50.328;15.014;2023-09-18T04:48:45;7.90;;;6.68;;
75894;SDS011;64573;50.328;15.014;2023-09-18T04:51:11;9.38;;;6.75;;
75894;SDS011;64573;50.328;15.014;2023-09-18T04:53:37;11.95;;;7.72;;
75894;SDS011;64573;50.328;15.014;2023-09-18T04:56:02;10.00;;;8.10;;
75894;SDS011;64573;50.328;15.014;2023-09-18T04:58:28;8.35;;;7.30;;
75894;SDS011;64573;50.328;15.014;2023-09-18T05:00:56;8.80;;;7.00;;
75894;SDS011;64573;50.328;15.014;2023-09-18T05:03:23;9.85;;;7.60;;
75894;SDS011;64573;50.328;15.014;2023-09-18T05:05:52;10.23;;;7.22;;
75894;SDS011;64573;50.328;15.014;2023-09-18T05:08:18;9.93;;;7.13;;
75894;SDS011;64573;50.328;15.014;2023-09-18T05:10:44;9.13;;;6.93;;
75894;SDS011;64573;50.328;15.014;2023-09-18T05:13:10;10.27;;;7.28;;
75894;SDS011;64573;50.328;15.014;2023-09-18T05:15:36;9.32;;;6.93;;
75894;SDS011;64573;50.328;15.014;2023-09-18T05:18:02;11.48;;;7.38;;
75894;SDS011;64573;50.328;15.014;2023-09-18T05:20:29;9.68;;;6.88;;
75894;SDS011;64573;50.328;15.014;2023-09-18T05:22:56;8.70;;;7.18;;
75894;SDS011;64573;50.328;15.014;2023-09-18T05:25:22;8.55;;;6.88;;
75894;SDS011;64573;50.328;15.014;2023-09-18T05:27:50;14.48;;;7.00;;
75894;SDS011;64573;50.328;15.014;2023-09-18T05:30:21;14.70;;;7.65;;
75894;SDS011;64573;50.328;15.014;2023-09-18T05:32:50;9.68;;;6.97;;
75894;SDS011;64573;50.328;15.014;2023-09-18T05:35:15;10.68;;;7.07;;
75894;SDS011;64573;50.328;15.014;2023-09-18T05:37:42;10.05;;;6.95;;
75894;SDS011;64573;50.328;15.014;2023-09-18T05:40:09;8.13;;;6.68;;
75894;SDS011;64573;50.328;15.014;2023-09-18T05:42:40;11.50;;;6.22;;
75894;SDS011;64573;50.328;15.014;2023-09-18T05:45:10;9.55;;;7.63;;
75894;SDS011;64573;50.328;15.014;2023-09-18T05:47:37;9.55;;;6.50;;
75894;SDS011;64573;50.328;15.014;2023-09-18T05:50:04;11.57;;;6.10;;
75894;SDS011;64573;50.328;15.014;2023-09-18T05:52:31;12.80;;;6.60;;
75894;SDS011;64573;50.328;15.014;2023-09-18T05:54:57;9.27;;;6.75;;
75894;SDS011;64573;50.328;15.014;2023-09-18T05:57:22;7.85;;;6.20;;
75894;SDS011;64573;50.328;15.014;2023-09-18T05:59:48;8.73;;;5.70;;
75894;SDS011;64573;50.328;15.014;2023-09-18T06:02:13;10.10;;;6.88;;
75894;SDS011;64573;50.328;15.014;2023-09-18T06:04:38;10.35;;;6.25;;
75894;SDS011;64573;50.328;15.014;2023-09-18T06:07:04;10.93;;;6.07;;
75894;SDS011;64573;50.328;15.014;2023-09-18T06:09:29;9.48;;;6.57;;
75894;SDS011;64573;50.328;15.014;2023-09-18T06:11:55;9.95;;;6.38;;
75894;SDS011;64573;50.328;15.014;2023-09-18T06:14:20;7.82;;;6.07;;
75894;SDS011;64573;50.328;15.014;2023-09-18T06:16:45;9.07;;;6.32;;
75894;SDS011;64573;50.328;15.014;2023-09-18T06:19:11;8.88;;;6.45;;
75894;SDS011;64573;50.328;15.014;2023-09-18T06:21:36;7.18;;;6.00;;
75894;SDS011;64573;50.328;15.014;2023-09-18T06:24:01;7.00;;;6.22;;
75894;SDS011;64573;50.328;15.014;2023-09-18T06:26:27;7.55;;;5.75;;
75894;SDS011;64573;50.328;15.014;2023-09-18T06:28:52;9.43;;;6.30;;
75894;SDS011;64573;50.328;15.014;2023-09-18T06:31:19;10.45;;;5.97;;
75894;SDS011;64573;50.328;15.014;2023-09-18T06:33:45;7.25;;;5.60;;
75894;SDS011;64573;50.328;15.014;2023-09-18T06:36:11;8.38;;;6.15;;
75894;SDS011;64573;50.328;15.014;2023-09-18T06:38:36;8.43;;;5.72;;
75894;SDS011;64573;50.328;15.014;2023-09-18T06:41:01;10.57;;;5.65;;
75894;SDS011;64573;50.328;15.014;2023-09-18T06:43:26;9.65;;;5.25;;
75894;SDS011;64573;50.328;15.014;2023-09-18T06:45:52;8.95;;;6.20;;
75894;SDS011;64573;50.328;15.014;2023-09-18T06:48:17;8.13;;;5.90;;
75894;SDS011;64573;50.328;15.014;2023-09-18T06:50:42;11.15;;;5.97;;
75894;SDS011;64573;50.328;15.014;2023-09-18T06:53:08;6.55;;;5.82;;
75894;SDS011;64573;50.328;15.014;2023-09-18T06:55:35;6.50;;;5.55;;
75894;SDS011;64573;50.328;15.014;2023-09-18T06:58:01;7.75;;;6.18;;
75894;SDS011;64573;50.328;15.014;2023-09-18T07:00:26;10.60;;;6.05;;
75894;SDS011;64573;50.328;15.014;2023-09-18T07:02:51;8.10;;;5.72;;
75894;SDS011;64573;50.328;15.014;2023-09-18T07:05:17;8.43;;;5.78;;
75894;SDS011;64573;50.328;15.014;2023-09-18T07:07:42;6.68;;;5.57;;
75894;SDS011;64573;50.328;15.014;2023-09-18T07:10:08;8.00;;;6.55;;
75894;SDS011;64573;50.328;15.014;2023-09-18T07:12:33;6.68;;;5.63;;
75894;SDS011;64573;50.328;15.014;2023-09-18T07:15:02;6.82;;;5.13;;
75894;SDS011;64573;50.328;15.014;2023-09-18T07:17:31;7.40;;;5.45;;
75894;SDS011;64573;50.328;15.014;2023-09-18T07:19:57;7.28;;;5.82;;
75894;SDS011;64573;50.328;15.014;2023-09-18T07:22:23;6.47;;;5.43;;
75894;SDS011;64573;50.328;15.014;2023-09-18T07:24:48;6.47;;;5.68;;
75894;SDS011;64573;50.328;15.014;2023-09-18T07:27:14;6.45;;;5.65;;
75894;SDS011;64573;50.328;15.014;2023-09-18T07:29:39;9.43;;;5.45;;
75894;SDS011;64573;50.328;15.014;2023-09-18T07:32:05;8.63;;;5.43;;
75894;SDS011;64573;50.328;15.014;2023-09-18T07:34:30;5.78;;;5.10;;
75894;SDS011;64573;50.328;15.014;2023-09-18T07:36:56;6.75;;;5.35;;
75894;SDS011;64573;50.328;15.014;2023-09-18T07:39:21;7.50;;;5.80;;
75894;SDS011;64573;50.328;15.014;2023-09-18T07:41:47;9.43;;;6.50;;
75894;SDS011;64573;50.328;15.014;2023-09-18T07:44:13;11.07;;;6.07;;
75894;SDS011;64573;50.328;15.014;2023-09-18T07:46:43;9.73;;;6.45;;
75894;SDS011;64573;50.328;15.014;2023-09-18T07:49:09;9.00;;;5.80;;
75894;SDS011;64573;50.328;15.014;2023-09-18T07:51:34;8.05;;;5.90;;
75894;SDS011;64573;50.328;15.014;2023-09-18T07:54:00;7.53;;;5.95;;
75894;SDS011;64573;50.328;15.014;2023-09-18T07:56:25;8.05;;;5.38;;
75894;SDS011;64573;50.328;15.014;2023-09-18T07:58:50;7.78;;;5.43;;
75894;SDS011;64573;50.328;15.014;2023-09-18T08:01:15;10.30;;;6.25;;
75894;SDS011;64573;50.328;15.014;2023-09-18T08:03:42;7.85;;;5.25;;
75894;SDS011;64573;50.328;15.014;2023-09-18T08:06:07;8.77;;;5.53;;
75894;SDS011;64573;50.328;15.014;2023-09-18T08:08:32;7.88;;;5.60;;
75894;SDS011;64573;50.328;15.014;2023-09-18T08:11:00;6.55;;;5.68;;
75894;SDS011;64573;50.328;15.014;2023-09-18T08:15:57;8.68;;;5.63;;
75894;SDS011;64573;50.328;15.014;2023-09-18T08:18:22;7.93;;;5.60;;
75894;SDS011;64573;50.328;15.014;2023-09-18T08:20:51;8.65;;;5.88;;
75894;SDS011;64573;50.328;15.014;2023-09-18T08:23:17;9.50;;;5.63;;
75894;SDS011;64573;50.328;15.014;2023-09-18T08:25:42;7.93;;;5.80;;
75894;SDS011;64573;50.328;15.014;2023-09-18T08:28:07;8.48;;;6.00;;
75894;SDS011;64573;50.328;15.014;2023-09-18T08:30:33;8.82;;;6.10;;
75894;SDS011;64573;50.328;15.014;2023-09-18T08:32:59;7.40;;;6.10;;
75894;SDS011;64573;50.328;15.014;2023-09-18T08:35:24;6.72;;;6.03;;
75894;SDS011;64573;50.328;15.014;2023-09-18T08:37:54;10.43;;;5.97;;
75894;SDS011;64573;50.328;15.014;2023-09-18T08:40:19;7.10;;;5.93;;
75894;SDS011;64573;50.328;15.014;2023-09-18T08:42:46;14.32;;;5.88;;
75894;SDS011;64573;50.328;15.014;2023-09-18T08:48:01;8.23;;;5.90;;
75894;SDS011;64573;50.328;15.014;2023-09-18T08:50:27;8.48;;;6.10;;
75894;SDS011;64573;50.328;15.014;2023-09-18T08:52:53;7.50;;;5.90;;
75894;SDS011;64573;50.328;15.014;2023-09-18T08:55:20;6.60;;;5.47;;
75894;SDS011;64573;50.328;15.014;2023-09-18T08:57:46;11.40;;;6.20;;
75894;SDS011;64573;50.328;15.014;2023-09-18T09:00:12;7.05;;;5.47;;
75894;SDS011;64573;50.328;15.014;2023-09-18T09:02:42;8.10;;;5.35;;
75894;SDS011;64573;50.328;15.014;2023-09-18T09:05:08;8.77;;;6.50;;
75894;SDS011;64573;50.328;15.014;2023-09-18T09:07:34;10.30;;;6.05;;
75894;SDS011;64573;50.328;15.014;2023-09-18T09:09:59;8.77;;;5.47;;
75894;SDS011;64573;50.328;15.014;2023-09-18T09:15:20;8.57;;;5.88;;
75894;SDS011;64573;50.328;15.014;2023-09-18T09:17:47;8.52;;;5.80;;
75894;SDS011;64573;50.328;15.014;2023-09-18T09:20:13;7.75;;;5.22;;
75894;SDS011;64573;50.328;15.014;2023-09-18T09:22:40;7.43;;;5.65;;
75894;SDS011;64573;50.328;15.014;2023-09-18T09:25:22;9.55;;;5.10;;
75894;SDS011;64573;50.328;15.014;2023-09-18T09:27:51;6.93;;;5.03;;
75894;SDS011;64573;50.328;15.014;2023-09-18T09:30:22;6.30;;;5.30;;
75894;SDS011;64573;50.328;15.014;2023-09-18T09:32:50;7.70;;;5.20;;
75894;SDS011;64573;50.328;15.014;2023-09-18T09:35:23;8.00;;;5.40;;
75894;SDS011;64573;50.328;15.014;2023-09-18T09:37:52;9.55;;;5.55;;
75894;SDS011;64573;50.328;15.014;2023-09-18T09:40:26;7.53;;;5.53;;
75894;SDS011;64573;50.328;15.014;2023-09-18T09:42:53;6.90;;;5.20;;
75894;SDS011;64573;50.328;15.014;2023-09-18T09:45:25;6.60;;;5.00;;
75894;SDS011;64573;50.328;15.014;2023-09-18T09:47:54;9.15;;;5.10;;
75894;SDS011;64573;50.328;15.014;2023-09-18T09:50:20;7.75;;;4.97;;
75894;SDS011;64573;50.328;15.014;2023-09-18T09:52:49;8.65;;;5.30;;
75894;SDS011;64573;50.328;15.014;2023-09-18T09:55:23;9.73;;;5.13;;
75894;SDS011;64573;50.328;15.014;2023-09-18T09:57:56;5.10;;;4.50;;
75894;SDS011;64573;50.328;15.014;2023-09-18T10:00:43;5.30;;;4.47;;
75894;SDS011;64573;50.328;15.014;2023-09-18T10:03:11;5.57;;;4.90;;
75894;SDS011;64573;50.328;15.014;2023-09-18T10:05:39;5.88;;;4.50;;
75894;SDS011;64573;50.328;15.014;2023-09-18T10:08:08;6.32;;;4.65;;
75894;SDS011;64573;50.328;15.014;2023-09-18T10:10:36;6.65;;;4.90;;
75894;SDS011;64573;50.328;15.014;2023-09-18T10:13:09;7.28;;;4.55;;
75894;SDS011;64573;50.328;15.014;2023-09-18T10:15:37;6.20;;;4.72;;
75894;SDS011;64573;50.328;15.014;2023-09-18T10:18:07;8.60;;;4.70;;
75894;SDS011;64573;50.328;15.014;2023-09-18T10:20:42;6.32;;;5.13;;
75894;SDS011;64573;50.328;15.014;2023-09-18T10:23:12;5.50;;;4.45;;
75894;SDS011;64573;50.328;15.014;2023-09-18T10:25:49;9.68;;;5.18;;
75894;SDS011;64573;50.328;15.014;2023-09-18T10:28:20;5.78;;;4.63;;
75894;SDS011;64573;50.328;15.014;2023-09-18T10:30:46;6.47;;;4.63;;
75894;SDS011;64573;50.328;15.014;2023-09-18T10:33:12;8.38;;;4.63;;
75894;SDS011;64573;50.328;15.014;2023-09-18T10:35:38;6.25;;;4.00;;
75894;SDS011;64573;50.328;15.014;2023-09-18T10:38:06;8.98;;;5.13;;
75894;SDS011;64573;50.328;15.014;2023-09-18T10:40:32;9.05;;;4.88;;
75894;SDS011;64573;50.328;15.014;2023-09-18T10:43:01;10.05;;;4.80;;
75894;SDS011;64573;50.328;15.014;2023-09-18T10:45:29;7.45;;;5.22;;
75894;SDS011;64573;50.328;15.014;2023-09-18T10:47:55;10.32;;;4.88;;
75894;SDS011;64573;50.328;15.014;2023-09-18T10:50:22;8.25;;;4.50;;
75894;SDS011;64573;50.328;15.014;2023-09-18T10:52:51;6.95;;;3.88;;
75894;SDS011;64573;50.328;15.014;2023-09-18T10:55:17;6.10;;;4.43;;
75894;SDS011;64573;50.328;15.014;2023-09-18T10:57:52;9.32;;;4.45;;
75894;SDS011;64573;50.328;15.014;2023-09-18T11:00:24;8.45;;;4.65;;
75894;SDS011;64573;50.328;15.014;2023-09-18T11:02:53;12.98;;;4.35;;
75894;SDS011;64573;50.328;15.014;2023-09-18T11:05:34;12.27;;;4.47;;
75894;SDS011;64573;50.328;15.014;2023-09-18T11:10:58;5.80;;;3.90;;
75894;SDS011;64573;50.328;15.014;2023-09-18T11:13:35;8.75;;;3.88;;
75894;SDS011;64573;50.328;15.014;2023-09-18T11:16:16;5.40;;;3.40;;
75894;SDS011;64573;50.328;15.014;2023-09-18T11:21:28;5.45;;;4.13;;
75894;SDS011;64573;50.328;15.014;2023-09-18T11:26:32;5.93;;;3.55;;
75894;SDS011;64573;50.328;15.014;2023-09-18T11:29:03;6.97;;;4.10;;
75894;SDS011;64573;50.328;15.014;2023-09-18T11:31:52;5.60;;;3.70;;
75894;SDS011;64573;50.328;15.014;2023-09-18T11:34:21;8.48;;;4.00;;
75894;SDS011;64573;50.328;15.014;2023-09-18T11:39:36;6.57;;;4.00;;
75894;SDS011;64573;50.328;15.014;2023-09-18T11:42:09;5.50;;;3.78;;
75894;SDS011;64573;50.328;15.014;2023-09-18T11:44:40;5.47;;;4.00;;
75894;SDS011;64573;50.328;15.014;2023-09-18T11:47:07;4.30;;;3.58;;
75894;SDS011;64573;50.328;15.014;2023-09-18T11:49:37;5.80;;;3.72;;
75894;SDS011;64573;50.328;15.014;2023-09-18T11:52:03;6.95;;;3.78;;
75894;SDS011;64573;50.328;15.014;2023-09-18T11:54:29;5.97;;;3.45;;
75894;SDS011;64573;50.328;15.014;2023-09-18T11:56:55;13.57;;;4.03;;
75894;SDS011;64573;50.328;15.014;2023-09-18T12:01:56;11.38;;;3.55;;
75894;SDS011;64573;50.328;15.014;2023-09-18T12:04:30;10.80;;;4.00;;
75894;SDS011;64573;50.328;15.014;2023-09-18T12:06:58;10.25;;;4.38;;
75894;SDS011;64573;50.328;15.014;2023-09-18T12:09:26;4.70;;;3.70;;
75894;SDS011;64573;50.328;15.014;2023-09-18T12:11:52;6.05;;;3.45;;
75894;SDS011;64573;50.328;15.014;2023-09-18T12:14:19;14.55;;;3.72;;
75894;SDS011;64573;50.328;15.014;2023-09-18T12:16:45;5.82;;;3.90;;
75894;SDS011;64573;50.328;15.014;2023-09-18T12:19:20;8.63;;;3.78;;
75894;SDS011;64573;50.328;15.014;2023-09-18T12:21:46;6.65;;;3.75;;
75894;SDS011;64573;50.328;15.014;2023-09-18T12:24:20;6.97;;;4.05;;
75894;SDS011;64573;50.328;15.014;2023-09-18T12:26:47;11.07;;;3.83;;
75894;SDS011;64573;50.328;15.014;2023-09-18T12:29:12;6.80;;;4.15;;
75894;SDS011;64573;50.328;15.014;2023-09-18T12:31:38;5.05;;;3.90;;
75894;SDS011;64573;50.328;15.014;2023-09-18T12:34:04;7.45;;;4.10;;
75894;SDS011;64573;50.328;15.014;2023-09-18T12:36:32;7.85;;;3.97;;
75894;SDS011;64573;50.328;15.014;2023-09-18T12:38:58;7.53;;;3.60;;
75894;SDS011;64573;50.328;15.014;2023-09-18T12:41:25;5.75;;;3.55;;
75894;SDS011;64573;50.328;15.014;2023-09-18T12:43:51;8.95;;;3.50;;
75894;SDS011;64573;50.328;15.014;2023-09-18T12:46:17;5.70;;;3.78;;
75894;SDS011;64573;50.328;15.014;2023-09-18T12:48:44;6.10;;;3.75;;
75894;SDS011;64573;50.328;15.014;2023-09-18T12:51:13;6.80;;;3.63;;
75894;SDS011;64573;50.328;15.014;2023-09-18T12:53:47;6.15;;;3.80;;
75894;SDS011;64573;50.328;15.014;2023-09-18T12:56:13;7.70;;;4.20;;
75894;SDS011;64573;50.328;15.014;2023-09-18T12:58:39;5.38;;;3.83;;
75894;SDS011;64573;50.328;15.014;2023-09-18T13:01:10;6.35;;;4.00;;
75894;SDS011;64573;50.328;15.014;2023-09-18T13:03:46;5.35;;;3.97;;
75894;SDS011;64573;50.328;15.014;2023-09-18T13:06:15;8.20;;;4.03;;
75894;SDS011;64573;50.328;15.014;2023-09-18T13:08:43;5.97;;;3.97;;
75894;SDS011;64573;50.328;15.014;2023-09-18T13:11:09;8.90;;;3.95;;
75894;SDS011;64573;50.328;15.014;2023-09-18T13:13:37;5.63;;;3.80;;
75894;SDS011;64573;50.328;15.014;2023-09-18T13:16:06;6.38;;;3.80;;
75894;SDS011;64573;50.328;15.014;2023-09-18T13:18:34;7.38;;;4.00;;
75894;SDS011;64573;50.328;15.014;2023-09-18T13:20:59;4.60;;;3.72;;
75894;SDS011;64573;50.328;15.014;2023-09-18T13:23:28;5.68;;;3.60;;
75894;SDS011;64573;50.328;15.014;2023-09-18T13:25:58;9.95;;;3.88;;
75894;SDS011;64573;50.328;15.014;2023-09-18T13:28:25;4.10;;;3.70;;
75894;SDS011;64573;50.328;15.014;2023-09-18T13:30:50;6.60;;;3.50;;
75894;SDS011;64573;50.328;15.014;2023-09-18T13:33:16;9.68;;;3.53;;
75894;SDS011;64573;50.328;15.014;2023-09-18T13:35:43;4.88;;;3.72;;
75894;SDS011;64573;50.328;15.014;2023-09-18T13:38:10;8.30;;;3.92;;
75894;SDS011;64573;50.328;15.014;2023-09-18T13:40:36;7.00;;;3.60;;
75894;SDS011;64573;50.328;15.014;2023-09-18T13:43:03;5.95;;;3.60;;
75894;SDS011;64573;50.328;15.014;2023-09-18T13:45:32;10.05;;;3.70;;
75894;SDS011;64573;50.328;15.014;2023-09-18T13:48:00;8.02;;;3.40;;
75894;SDS011;64573;50.328;15.014;2023-09-18T13:50:25;9.57;;;3.95;;
75894;SDS011;64573;50.328;15.014;2023-09-18T13:52:51;7.18;;;3.60;;
75894;SDS011;64573;50.328;15.014;2023-09-18T13:55:16;7.40;;;3.45;;
75894;SDS011;64573;50.328;15.014;2023-09-18T13:57:42;9.25;;;4.03;;
75894;SDS011;64573;50.328;15.014;2023-09-18T14:00:07;5.78;;;3.38;;
75894;SDS011;64573;50.328;15.014;2023-09-18T14:02:37;6.50;;;3.33;;
75894;SDS011;64573;50.328;15.014;2023-09-18T14:05:06;10.98;;;3.20;;
75894;SDS011;64573;50.328;15.014;2023-09-18T14:07:33;5.95;;;3.03;;
75894;SDS011;64573;50.328;15.014;2023-09-18T14:09:58;11.38;;;3.60;;
75894;SDS011;64573;50.328;15.014;2023-09-18T14:12:24;5.05;;;2.95;;
75894;SDS011;64573;50.328;15.014;2023-09-18T14:14:50;7.40;;;3.20;;
75894;SDS011;64573;50.328;15.014;2023-09-18T14:17:15;8.98;;;3.40;;
75894;SDS011;64573;50.328;15.014;2023-09-18T14:19:43;5.68;;;3.15;;
75894;SDS011;64573;50.328;15.014;2023-09-18T14:22:09;4.63;;;2.80;;
75894;SDS011;64573;50.328;15.014;2023-09-18T14:24:39;5.55;;;3.08;;
75894;SDS011;64573;50.328;15.014;2023-09-18T14:27:05;4.30;;;2.97;;
75894;SDS011;64573;50.328;15.014;2023-09-18T14:29:32;7.28;;;3.28;;
75894;SDS011;64573;50.328;15.014;2023-09-18T14:31:58;5.80;;;3.05;;
75894;SDS011;64573;50.328;15.014;2023-09-18T14:34:24;6.32;;;2.97;;
75894;SDS011;64573;50.328;15.014;2023-09-18T14:36:49;8.07;;;3.10;;
75894;SDS011;64573;50.328;15.014;2023-09-18T14:39:15;10.35;;;3.00;;
75894;SDS011;64573;50.328;15.014;2023-09-18T14:41:41;3.97;;;2.72;;
75894;SDS011;64573;50.328;15.014;2023-09-18T14:44:08;4.57;;;3.17;;
75894;SDS011;64573;50.328;15.014;2023-09-18T14:46:35;7.97;;;3.08;;
75894;SDS011;64573;50.328;15.014;2023-09-18T14:49:02;11.13;;;3.05;;
75894;SDS011;64573;50.328;15.014;2023-09-18T14:51:28;13.02;;;3.45;;
75894;SDS011;64573;50.328;15.014;2023-09-18T14:53:54;5.22;;;2.92;;
75894;SDS011;64573;50.328;15.014;2023-09-18T14:58:48;5.45;;;3.05;;